createdAt,value
2018-02-07T04:32:36.898Z,50.25
2018-02-07T04:35:04.661Z,47.28
2018-02-07T04:37:32.423Z,51.17
2018-02-07T04:40:00.295Z,56.90
2018-02-07T04:42:28.102Z,48.45
2018-02-07T04:44:56.735Z,55.35
2018-02-07T04:47:24.601Z,55.03
2018-02-07T04:49:52.306Z,54.60
2018-02-07T04:52:20.778Z,44.58
2018-02-07T04:54:49.333Z,54.58
2018-02-07T04:57:17.023Z,48.15
2018-02-07T04:59:45.468Z,58.38
2018-02-07T05:02:15.342Z,58.28
2018-02-07T05:04:43.147Z,52.50
2018-02-07T05:07:10.832Z,59.40
2018-02-07T05:09:39.327Z,53.67
2018-02-07T05:12:07.795Z,68.37
2018-02-07T05:14:36.241Z,66.68
2018-02-07T05:17:03.998Z,65.37
2018-02-07T05:19:31.711Z,51.37
2018-02-07T05:22:00.189Z,54.10
2018-02-07T05:24:28.711Z,59.85
2018-02-07T05:26:56.388Z,43.33
2018-02-07T05:29:24.068Z,54.63
2018-02-07T05:31:51.774Z,48.42
2018-02-07T05:34:19.475Z,58.45
2018-02-07T05:36:47.215Z,49.92
2018-02-07T05:39:14.896Z,50.47
2018-02-07T05:41:42.575Z,47.95
2018-02-07T05:44:10.302Z,61.08
2018-02-07T05:46:38.080Z,46.03
2018-02-07T05:49:05.841Z,48.35
2018-02-07T05:51:33.708Z,52.90
2018-02-07T05:54:01.410Z,50.08
2018-02-07T05:56:29.915Z,59.97
2018-02-07T05:58:57.599Z,59.50
2018-02-07T06:01:25.308Z,48.30
2018-02-07T06:03:53.838Z,50.72
2018-02-07T06:06:21.523Z,52.53
2018-02-07T06:08:49.208Z,47.53
2018-02-07T06:11:17.858Z,59.92
2018-02-07T06:13:45.621Z,50.22
2018-02-07T06:16:13.384Z,51.65
2018-02-07T06:18:41.253Z,53.35
2018-02-07T06:21:09.115Z,54.72
2018-02-07T06:23:36.980Z,51.83
2018-02-07T06:26:04.845Z,57.50
2018-02-07T06:28:32.558Z,56.65
2018-02-07T06:31:00.426Z,56.50
2018-02-07T06:33:28.146Z,48.40
2018-02-07T06:35:55.857Z,50.55
2018-02-07T06:38:23.600Z,43.05
2018-02-07T06:40:52.059Z,61.33
2018-02-07T06:43:19.758Z,42.13
2018-02-07T06:45:47.494Z,52.17
2018-02-07T06:48:15.195Z,55.85
2018-02-07T06:50:42.881Z,62.50
2018-02-07T06:53:11.411Z,51.72
2018-02-07T06:55:39.864Z,51.85
2018-02-07T06:58:07.546Z,50.92
2018-02-07T07:00:36.040Z,51.05
2018-02-07T07:03:03.749Z,48.40
2018-02-07T07:05:31.457Z,52.45
2018-02-07T07:08:00.168Z,46.97
2018-02-07T07:10:27.863Z,51.20
2018-02-07T07:12:55.573Z,49.20
2018-02-07T07:15:23.330Z,58.25
2018-02-07T07:17:51.034Z,42.55
2018-02-07T07:20:18.725Z,43.72
2018-02-07T07:22:46.454Z,56.20
2018-02-07T07:25:14.167Z,57.00
2018-02-07T07:27:42.775Z,58.65
2018-02-07T07:30:10.464Z,61.03
2018-02-07T07:32:38.915Z,62.10
2018-02-07T07:35:06.660Z,53.78
2018-02-07T07:37:35.111Z,60.45
2018-02-07T07:40:02.798Z,57.22
2018-02-07T07:42:31.299Z,60.78
2018-02-07T07:44:59.003Z,65.22
2018-02-07T07:47:26.717Z,61.67
2018-02-07T07:49:54.447Z,66.28
2018-02-07T07:52:22.150Z,75.62
2018-02-07T07:54:49.875Z,67.37
2018-02-07T07:57:18.371Z,71.50
2018-02-07T07:59:46.843Z,62.10
2018-02-07T08:02:15.315Z,63.58
2018-02-07T08:04:43.791Z,87.05
2018-02-07T08:07:11.499Z,105.30
2018-02-07T08:09:39.203Z,74.47
2018-02-07T08:12:06.919Z,91.00
2018-02-07T08:14:34.664Z,71.60
2018-02-07T08:17:02.348Z,63.75
2018-02-07T08:19:30.031Z,67.15
2018-02-07T08:21:57.787Z,61.10
2018-02-07T08:24:25.493Z,65.10
2018-02-07T08:26:53.956Z,67.07
2018-02-07T08:29:21.658Z,70.47
2018-02-07T08:31:49.339Z,63.60
2018-02-07T08:34:17.067Z,69.72
2018-02-07T08:36:44.787Z,64.20
2018-02-07T08:39:12.495Z,84.22
2018-02-07T08:41:40.239Z,104.55
2018-02-07T08:44:08.691Z,144.27
2018-02-07T08:46:36.395Z,71.72
2018-02-07T08:49:04.158Z,67.85
2018-02-07T08:51:31.865Z,70.90
2018-02-07T08:53:59.571Z,59.25
2018-02-07T08:56:28.067Z,61.20
2018-02-07T08:58:55.780Z,64.97
2018-02-07T09:01:23.494Z,105.75
2018-02-07T09:03:51.215Z,74.40
2018-02-07T09:06:18.919Z,76.00
2018-02-07T09:08:47.858Z,99.87
2018-02-07T09:11:16.464Z,73.30
2018-02-07T09:13:44.935Z,69.03
2018-02-07T09:16:12.622Z,79.05
2018-02-07T09:18:40.457Z,68.78
2018-02-07T09:21:08.199Z,70.35
2018-02-07T09:23:36.358Z,71.60
2018-02-07T09:26:04.870Z,77.57
2018-02-07T09:28:32.739Z,76.87
2018-02-07T09:31:02.398Z,69.07
2018-02-07T09:33:30.223Z,69.28
2018-02-07T09:35:58.691Z,78.50
2018-02-07T09:38:26.455Z,69.78
2018-02-07T09:40:54.162Z,63.83
2018-02-07T09:43:21.866Z,66.78
2018-02-07T09:45:49.599Z,69.40
2018-02-07T09:48:17.306Z,68.85
2018-02-07T09:50:45.826Z,73.20
2018-02-07T09:53:13.507Z,75.05
2018-02-07T09:55:41.189Z,68.50
2018-02-07T09:58:08.903Z,80.05
2018-02-07T10:00:36.587Z,74.53
2018-02-07T10:03:04.322Z,71.57
2018-02-07T10:05:32.055Z,74.32
2018-02-07T10:07:59.762Z,77.10
2018-02-07T10:10:27.455Z,77.65
2018-02-07T10:12:55.179Z,69.35
2018-02-07T10:15:22.866Z,76.22
2018-02-07T10:17:50.568Z,76.75
2018-02-07T10:20:19.082Z,72.22
2018-02-07T10:22:46.767Z,65.93
2018-02-07T10:25:14.470Z,76.70
2018-02-07T10:27:42.975Z,73.68
2018-02-07T10:30:10.694Z,76.15
2018-02-07T10:32:38.380Z,77.37
2018-02-07T10:35:06.918Z,75.95
2018-02-07T10:37:34.623Z,78.25
2018-02-07T10:40:03.091Z,76.70
2018-02-07T10:42:30.848Z,71.30
2018-02-07T10:44:58.533Z,64.32
2018-02-07T10:47:26.251Z,67.87
2018-02-07T10:49:53.987Z,66.97
2018-02-07T10:52:21.672Z,63.28
2018-02-07T10:54:49.380Z,65.53
2018-02-07T10:57:17.097Z,60.75
2018-02-07T10:59:44.779Z,59.17
2018-02-07T11:02:12.463Z,64.87
2018-02-07T11:04:41.019Z,66.53
2018-02-07T11:07:08.736Z,60.63
2018-02-07T11:09:36.432Z,63.05
2018-02-07T11:12:04.175Z,64.40
2018-02-07T11:14:31.879Z,71.43
2018-02-07T11:17:00.350Z,72.25
2018-02-07T11:19:28.078Z,58.15
2018-02-07T11:21:55.760Z,65.53
2018-02-07T11:24:23.540Z,65.18
2018-02-07T11:26:51.267Z,62.35
2018-02-07T11:29:18.979Z,67.25
2018-02-07T11:31:47.478Z,65.75
2018-02-07T11:34:15.159Z,64.37
2018-02-07T11:36:42.836Z,63.08
2018-02-07T11:39:10.582Z,64.12
2018-02-07T11:41:38.290Z,67.00
2018-02-07T11:44:05.990Z,67.85
2018-02-07T11:46:33.714Z,82.90
2018-02-07T11:49:01.418Z,79.80
2018-02-07T11:51:29.544Z,80.30
2018-02-07T11:53:57.223Z,87.55
2018-02-07T11:56:25.686Z,76.20
2018-02-07T11:58:53.416Z,77.03
2018-02-07T12:01:21.123Z,68.62
2018-02-07T12:03:49.566Z,80.70
2018-02-07T12:06:17.287Z,74.22
2018-02-07T12:08:44.991Z,75.75
2018-02-07T12:11:12.751Z,73.12
2018-02-07T12:13:40.459Z,71.32
2018-02-07T12:16:08.174Z,77.50
2018-02-07T12:18:35.925Z,79.30
2018-02-07T12:21:03.700Z,80.62
2018-02-07T12:23:31.398Z,88.80
2018-02-07T12:25:59.879Z,92.40
2018-02-07T12:28:28.339Z,95.90
2018-02-07T12:30:56.158Z,96.47
2018-02-07T12:33:23.842Z,89.13
2018-02-07T12:35:51.547Z,83.28
2018-02-07T12:38:20.043Z,87.03
2018-02-07T12:40:47.750Z,104.53
2018-02-07T12:43:15.509Z,92.57
2018-02-07T12:45:43.191Z,93.70
2018-02-07T12:48:10.891Z,96.82
2018-02-07T12:50:38.646Z,97.60
2018-02-07T12:53:06.331Z,99.22
2018-02-07T12:55:34.020Z,118.30
2018-02-07T12:58:01.763Z,101.03
2018-02-07T13:00:29.448Z,102.85
2018-02-07T13:02:57.131Z,111.78
2018-02-07T13:05:24.886Z,97.55
2018-02-07T13:07:52.728Z,104.20
2018-02-07T13:10:20.491Z,95.75
2018-02-07T13:12:48.360Z,111.05
2018-02-07T13:15:16.119Z,103.03
2018-02-07T13:17:43.882Z,117.53
2018-02-07T13:20:11.639Z,109.78
2018-02-07T13:22:39.325Z,109.03
2018-02-07T13:25:07.029Z,105.50
2018-02-07T13:27:37.238Z,106.30
2018-02-07T13:30:05.975Z,115.80
2018-02-07T13:32:33.838Z,136.07
2018-02-07T13:35:01.602Z,131.55
2018-02-07T13:37:29.367Z,143.68
2018-02-07T13:39:57.183Z,138.00
2018-02-07T13:42:24.915Z,141.88
2018-02-07T13:44:52.628Z,133.73
2018-02-07T13:47:20.386Z,123.65
2018-02-07T13:49:48.120Z,135.10
2018-02-07T13:52:16.591Z,128.48
2018-02-07T13:54:45.138Z,124.70
2018-02-07T13:57:12.850Z,128.48
2018-02-07T13:59:40.571Z,118.40
2018-02-07T14:02:08.337Z,116.37
2018-02-07T14:04:36.031Z,140.00
2018-02-07T14:07:04.479Z,114.75
2018-02-07T14:09:32.206Z,109.75
2018-02-07T14:11:59.915Z,118.95
2018-02-07T14:14:27.659Z,111.30
2018-02-07T14:16:55.371Z,108.25
2018-02-07T14:19:23.062Z,118.43
2018-02-07T14:21:50.791Z,106.25
2018-02-07T14:24:18.498Z,98.18
2018-02-07T14:26:46.187Z,106.00
2018-02-07T14:29:14.113Z,95.72
2018-02-07T14:31:41.844Z,109.87
2018-02-07T14:34:09.599Z,101.72
2018-02-07T14:36:38.071Z,111.12
2018-02-07T14:39:06.523Z,100.50
2018-02-07T14:41:34.376Z,96.57
2018-02-07T14:44:02.241Z,95.90
2018-02-07T14:46:30.003Z,93.37
2018-02-07T14:48:57.868Z,86.85
2018-02-07T14:51:25.733Z,89.78
2018-02-07T14:53:53.803Z,91.90
2018-02-07T14:56:21.669Z,84.78
2018-02-07T14:58:49.971Z,86.37
2018-02-07T15:01:18.862Z,75.25
2018-02-07T15:03:46.596Z,78.18
2018-02-07T15:06:14.275Z,73.68
2018-02-07T15:08:42.032Z,73.87
2018-02-07T15:11:09.739Z,73.22
2018-02-07T15:13:37.423Z,68.40
2018-02-07T15:16:05.198Z,72.05
2018-02-07T15:18:33.187Z,65.60
2018-02-07T15:21:00.964Z,88.50
2018-02-07T15:23:28.675Z,69.95
2018-02-07T15:25:56.378Z,64.03
2018-02-07T15:28:24.121Z,58.95
2018-02-07T15:30:51.856Z,64.40
2018-02-07T15:33:19.560Z,60.90
2018-02-07T15:35:47.411Z,72.90
2018-02-07T15:38:15.280Z,60.92
2018-02-07T15:40:44.170Z,61.70
2018-02-07T15:43:12.791Z,64.55
2018-02-07T15:45:41.432Z,60.55
2018-02-07T15:48:09.657Z,63.03
2018-02-07T15:50:37.470Z,76.82
2018-02-07T15:53:05.336Z,68.82
2018-02-07T15:55:33.098Z,66.47
2018-02-07T15:58:00.861Z,65.80
2018-02-07T16:00:29.240Z,72.30
2018-02-07T16:02:57.210Z,72.93
2018-02-07T16:05:25.995Z,76.55
2018-02-07T16:07:53.861Z,71.75
2018-02-07T16:10:21.623Z,64.18
2018-02-07T16:12:49.343Z,70.90
2018-02-07T16:15:17.148Z,66.12
2018-02-07T16:17:45.016Z,68.15
2018-02-07T16:20:12.778Z,79.43
2018-02-07T16:22:40.949Z,89.82
2018-02-07T16:25:08.650Z,67.30
2018-02-07T16:27:37.191Z,80.93
2018-02-07T16:30:05.159Z,79.68
2018-02-07T16:32:33.024Z,81.03
2018-02-07T16:35:00.890Z,74.78
2018-02-07T16:37:28.960Z,74.55
2018-02-07T16:39:57.645Z,75.82
2018-02-07T16:42:25.509Z,81.50
2018-02-07T16:44:53.272Z,82.82
2018-02-07T16:47:21.044Z,92.90
2018-02-07T16:49:48.799Z,84.93
2018-02-07T16:52:16.561Z,78.45
2018-02-07T16:54:44.531Z,79.30
2018-02-07T16:57:12.394Z,70.50
2018-02-07T16:59:40.157Z,84.40
2018-02-07T17:02:08.022Z,90.62
2018-02-07T17:04:35.786Z,83.78
2018-02-07T17:07:03.548Z,86.35
2018-02-07T17:09:31.414Z,91.15
2018-02-07T17:11:59.279Z,130.15
2018-02-07T17:14:27.042Z,125.47
2018-02-07T17:16:54.909Z,128.20
2018-02-07T17:19:22.816Z,94.20
2018-02-07T17:21:50.637Z,90.70
2018-02-07T17:24:18.345Z,84.95
2018-02-07T17:26:46.983Z,87.85
2018-02-07T17:29:14.849Z,78.47
2018-02-07T17:31:42.612Z,80.87
2018-02-07T17:34:10.477Z,91.93
2018-02-07T17:36:38.184Z,86.68
2018-02-07T17:39:06.822Z,91.43
2018-02-07T17:41:34.627Z,99.15
2018-02-07T17:44:03.166Z,88.30
2018-02-07T17:46:31.033Z,96.65
2018-02-07T17:48:58.897Z,99.80
2018-02-07T17:51:27.526Z,94.37
2018-02-07T17:53:55.391Z,92.50
2018-02-07T17:56:23.928Z,85.70
2018-02-07T17:58:51.689Z,91.93
2018-02-07T18:01:19.510Z,89.90
2018-02-07T18:03:47.318Z,103.60
2018-02-07T18:06:15.136Z,93.47
2018-02-07T18:08:43.049Z,85.12
2018-02-07T18:11:10.914Z,84.30
2018-02-07T18:13:38.779Z,91.47
2018-02-07T18:16:06.552Z,94.50
2018-02-07T18:18:34.362Z,101.38
2018-02-07T18:21:02.274Z,110.12
2018-02-07T18:23:30.143Z,92.10
2018-02-07T18:25:57.955Z,111.45
2018-02-07T18:28:25.691Z,97.47
2018-02-07T18:30:54.199Z,97.28
2018-02-07T18:33:21.891Z,106.55
2018-02-07T18:35:49.601Z,103.12
2018-02-07T18:38:18.119Z,104.80
2018-02-07T18:40:45.806Z,96.03
2018-02-07T18:43:14.267Z,108.22
2018-02-07T18:45:42.157Z,137.32
2018-02-07T18:48:10.278Z,172.77
2018-02-07T18:50:38.747Z,125.65
2018-02-07T18:53:07.237Z,137.15
2018-02-07T18:55:34.974Z,127.20
2018-02-07T18:58:02.667Z,128.55
2018-02-07T19:00:30.435Z,140.45
2018-02-07T19:02:58.135Z,137.88
2018-02-07T19:05:25.823Z,106.25
2018-02-07T19:07:53.575Z,103.78
2018-02-07T19:10:21.267Z,121.78
2018-02-07T19:12:49.733Z,147.37
2018-02-07T19:15:18.235Z,129.75
2018-02-07T19:17:45.928Z,124.22
2018-02-07T19:20:13.611Z,105.25
2018-02-07T19:22:41.343Z,104.18
2018-02-07T19:25:09.103Z,100.32
2018-02-07T19:27:36.787Z,112.78
2018-02-07T19:30:04.759Z,103.93
2018-02-07T19:32:33.266Z,109.50
2018-02-07T19:35:01.738Z,94.78
2018-02-07T19:37:29.454Z,112.75
2018-02-07T19:39:57.235Z,109.97
2018-02-07T19:42:24.958Z,105.28
2018-02-07T19:44:52.655Z,119.95
2018-02-07T19:47:20.398Z,89.50
2018-02-07T19:49:48.135Z,107.60
2018-02-07T19:52:15.850Z,113.55
2018-02-07T19:54:43.567Z,106.80
2018-02-07T19:57:11.286Z,103.12
2018-02-07T19:59:39.190Z,105.55
2018-02-07T20:02:07.428Z,99.95
2018-02-07T20:04:36.375Z,105.00
2018-02-07T20:07:04.446Z,108.03
2018-02-07T20:09:32.215Z,122.40
2018-02-07T20:12:00.317Z,121.00
2018-02-07T20:14:28.441Z,114.10
2018-02-07T20:16:56.688Z,106.97
2018-02-07T20:19:25.750Z,102.32
2018-02-07T20:21:54.125Z,117.32
2018-02-07T20:24:23.070Z,116.20
2018-02-07T20:26:51.077Z,109.97
2018-02-07T20:29:19.186Z,103.97
2018-02-07T20:31:47.167Z,109.07
2018-02-07T20:34:15.695Z,108.05
2018-02-07T20:36:43.763Z,103.18
2018-02-07T20:39:12.604Z,104.55
2018-02-07T20:41:40.960Z,109.60
2018-02-07T20:44:10.043Z,96.22
2018-02-07T20:46:38.193Z,112.90
2018-02-07T20:49:06.367Z,119.30
2018-02-07T20:51:35.271Z,106.18
2018-02-07T20:54:03.381Z,115.30
2018-02-07T20:56:31.246Z,109.47
2018-02-07T20:59:00.138Z,101.20
2018-02-07T21:01:28.335Z,100.90
2018-02-07T21:03:56.140Z,109.32
2018-02-07T21:06:24.331Z,111.90
2018-02-07T21:08:53.364Z,109.78
2018-02-07T21:11:21.701Z,107.57
2018-02-07T21:13:49.451Z,114.10
2018-02-07T21:16:17.652Z,118.45
2018-02-07T21:18:45.781Z,115.32
2018-02-07T21:21:14.303Z,119.15
2018-02-07T21:23:42.803Z,126.20
2018-02-07T21:26:10.520Z,130.60
2018-02-07T21:28:38.230Z,125.87
2018-02-07T21:31:05.979Z,117.53
2018-02-07T21:33:33.663Z,127.18
2018-02-07T21:36:01.356Z,121.32
2018-02-07T21:38:29.091Z,117.00
2018-02-07T21:40:56.775Z,117.03
2018-02-07T21:43:24.466Z,134.48
2018-02-07T21:45:52.949Z,128.05
2018-02-07T21:48:21.419Z,119.68
2018-02-07T21:50:49.126Z,125.25
2018-02-07T21:53:16.843Z,132.60
2018-02-07T21:55:44.527Z,142.40
2018-02-07T21:58:13.042Z,125.30
2018-02-07T22:00:40.727Z,126.65
2018-02-07T22:03:09.214Z,129.70
2018-02-07T22:05:36.971Z,119.22
2018-02-07T22:08:04.693Z,131.45
2018-02-07T22:10:32.380Z,125.32
2018-02-07T22:13:00.097Z,122.90
2018-02-07T22:15:27.806Z,138.37
2018-02-07T22:17:55.499Z,136.98
2018-02-07T22:20:24.003Z,127.70
2018-02-07T22:22:51.691Z,115.22
2018-02-07T22:25:19.458Z,134.30
2018-02-07T22:27:47.155Z,118.90
2018-02-07T22:30:14.848Z,113.82
2018-02-07T22:32:43.351Z,130.00
2018-02-07T22:35:11.058Z,120.20
2018-02-07T22:37:38.751Z,140.20
2018-02-07T22:40:07.375Z,124.78
2018-02-07T22:42:35.086Z,123.07
2018-02-07T22:45:03.539Z,133.93
2018-02-07T22:47:31.390Z,115.97
2018-02-07T22:49:59.253Z,134.35
2018-02-07T22:52:27.119Z,126.05
2018-02-07T22:54:54.984Z,117.07
2018-02-07T22:57:22.747Z,130.95
2018-02-07T22:59:50.454Z,126.70
2018-02-07T23:02:18.951Z,137.23
2018-02-07T23:04:46.647Z,135.77
2018-02-07T23:07:14.372Z,121.60
2018-02-07T23:09:42.095Z,129.68
2018-02-07T23:12:09.784Z,131.75
2018-02-07T23:14:38.259Z,147.55
2018-02-07T23:17:06.729Z,128.87
2018-02-07T23:19:35.185Z,154.77
2018-02-07T23:22:03.041Z,130.87
2018-02-07T23:24:30.802Z,134.40
2018-02-07T23:26:58.565Z,127.00
2018-02-07T23:29:26.327Z,125.80
